sensor_id;sensor_type;location;lat;lon;timestamp;P1;durP1;ratioP1;P2;durP2;ratioP2
25439;SDS011;13365;52.208;5.488;2023-10-19T00:01:12;14.43;;;3.85;;
25439;SDS011;13365;52.208;5.488;2023-10-19T00:03:40;6.40;;;4.55;;
25439;SDS011;13365;52.208;5.488;2023-10-19T00:06:06;5.65;;;3.60;;
25439;SDS011;13365;52.208;5.488;2023-10-19T00:08:31;6.50;;;3.88;;
25439;SDS011;13365;52.208;5.488;2023-10-19T00:11:06;5.60;;;3.50;;
25439;SDS011;13365;52.208;5.488;2023-10-19T00:13:37;7.22;;;4.45;;
25439;SDS011;13365;52.208;5.488;2023-10-19T00:16:03;7.22;;;4.05;;
25439;SDS011;13365;52.208;5.488;2023-10-19T00:18:45;10.07;;;5.25;;
25439;SDS011;13365;52.208;5.488;2023-10-19T00:21:13;7.15;;;4.40;;
25439;SDS011;13365;52.208;5.488;2023-10-19T00:23:46;8.23;;;4.68;;
25439;SDS011;13365;52.208;5.488;2023-10-19T00:26:13;7.97;;;4.82;;
25439;SDS011;13365;52.208;5.488;2023-10-19T00:28:44;8.40;;;5.03;;
25439;SDS011;13365;52.208;5.488;2023-10-19T00:31:12;6.55;;;4.68;;
25439;SDS011;13365;52.208;5.488;2023-10-19T00:33:38;6.97;;;4.18;;
25439;SDS011;13365;52.208;5.488;2023-10-19T00:36:07;7.07;;;4.63;;
25439;SDS011;13365;52.208;5.488;2023-10-19T00:38:34;7.55;;;5.30;;
25439;SDS011;13365;52.208;5.488;2023-10-19T00:41:00;13.05;;;6.38;;
25439;SDS011;13365;52.208;5.488;2023-10-19T00:43:35;8.38;;;4.95;;
25439;SDS011;13365;52.208;5.488;2023-10-19T08:20:51;3.03;;;1.55;;
25439;SDS011;13365;52.208;5.488;2023-10-19T08:23:17;3.78;;;1.63;;
25439;SDS011;13365;52.208;5.488;2023-10-19T08:25:48;5.45;;;1.48;;
25439;SDS011;13365;52.208;5.488;2023-10-19T08:28:15;3.17;;;1.23;;
25439;SDS011;13365;52.208;5.488;2023-10-19T08:30:41;4.35;;;1.40;;
25439;SDS011;13365;52.208;5.488;2023-10-19T08:33:09;5.45;;;1.63;;
25439;SDS011;13365;52.208;5.488;2023-10-19T08:35:38;10.60;;;1.85;;
25439;SDS011;13365;52.208;5.488;2023-10-19T08:38:04;2.47;;;1.30;;
25439;SDS011;13365;52.208;5.488;2023-10-19T08:40:36;1.88;;;1.30;;
25439;SDS011;13365;52.208;5.488;2023-10-19T08:43:03;3.75;;;1.73;;
25439;SDS011;13365;52.208;5.488;2023-10-19T08:45:29;4.32;;;1.25;;
25439;SDS011;13365;52.208;5.488;2023-10-19T08:48:00;2.88;;;1.80;;
25439;SDS011;13365;52.208;5.488;2023-10-19T08:50:27;2.15;;;1.30;;
25439;SDS011;13365;52.208;5.488;2023-10-19T08:52:55;4.90;;;1.77;;
25439;SDS011;13365;52.208;5.488;2023-10-19T08:55:23;2.58;;;1.35;;
25439;SDS011;13365;52.208;5.488;2023-10-19T08:57:50;3.85;;;1.60;;
25439;SDS011;13365;52.208;5.488;2023-10-19T09:00:16;6.65;;;1.55;;
25439;SDS011;13365;52.208;5.488;2023-10-19T09:02:44;3.17;;;1.42;;
25439;SDS011;13365;52.208;5.488;2023-10-19T09:05:10;5.13;;;1.85;;
25439;SDS011;13365;52.208;5.488;2023-10-19T09:07:45;10.35;;;2.00;;
25439;SDS011;13365;52.208;5.488;2023-10-19T09:10:23;3.30;;;1.50;;
25439;SDS011;13365;52.208;5.488;2023-10-19T09:15:27;4.47;;;1.38;;
25439;SDS011;13365;52.208;5.488;2023-10-19T09:17:55;3.42;;;1.52;;
25439;SDS011;13365;52.208;5.488;2023-10-19T09:20:21;11.57;;;1.77;;
25439;SDS011;13365;52.208;5.488;2023-10-19T09:22:55;2.05;;;1.13;;
25439;SDS011;13365;52.208;5.488;2023-10-19T09:25:23;4.63;;;1.65;;
25439;SDS011;13365;52.208;5.488;2023-10-19T09:27:48;6.38;;;1.67;;
25439;SDS011;13365;52.208;5.488;2023-10-19T09:30:15;4.00;;;1.75;;
25439;SDS011;13365;52.208;5.488;2023-10-19T09:32:45;3.10;;;1.75;;
25439;SDS011;13365;52.208;5.488;2023-10-19T09:35:15;4.55;;;1.25;;
25439;SDS011;13365;52.208;5.488;2023-10-19T09:37:42;8.43;;;1.80;;
25439;SDS011;13365;52.208;5.488;2023-10-19T09:40:12;10.38;;;1.90;;
25439;SDS011;13365;52.208;5.488;2023-10-19T09:42:42;4.70;;;2.25;;
25439;SDS011;13365;52.208;5.488;2023-10-19T09:45:13;3.95;;;1.70;;
25439;SDS011;13365;52.208;5.488;2023-10-19T09:47:45;4.50;;;1.55;;
25439;SDS011;13365;52.208;5.488;2023-10-19T09:50:15;4.90;;;1.75;;
25439;SDS011;13365;52.208;5.488;2023-10-19T09:52:40;3.70;;;1.77;;
25439;SDS011;13365;52.208;5.488;2023-10-19T09:55:07;2.47;;;1.65;;
25439;SDS011;13365;52.208;5.488;2023-10-19T09:57:51;10.05;;;2.05;;
25439;SDS011;13365;52.208;5.488;2023-10-19T10:00:20;6.78;;;1.77;;
25439;SDS011;13365;52.208;5.488;2023-10-19T10:02:49;7.63;;;2.00;;
25439;SDS011;13365;52.208;5.488;2023-10-19T10:10:49;7.03;;;2.10;;
25439;SDS011;13365;52.208;5.488;2023-10-19T10:15:56;5.75;;;2.10;;
25439;SDS011;13365;52.208;5.488;2023-10-19T10:18:25;6.50;;;2.08;;
25439;SDS011;13365;52.208;5.488;2023-10-19T10:26:08;6.10;;;1.50;;
25439;SDS011;13365;52.208;5.488;2023-10-19T10:28:38;5.07;;;2.03;;
25439;SDS011;13365;52.208;5.488;2023-10-19T10:31:12;6.88;;;1.67;;
25439;SDS011;13365;52.208;5.488;2023-10-19T10:33:43;11.02;;;2.15;;
25439;SDS011;13365;52.208;5.488;2023-10-19T10:36:11;10.70;;;1.90;;
25439;SDS011;13365;52.208;5.488;2023-10-19T10:38:41;5.00;;;2.00;;
25439;SDS011;13365;52.208;5.488;2023-10-19T10:41:07;5.85;;;1.58;;
25439;SDS011;13365;52.208;5.488;2023-10-19T10:43:48;6.82;;;1.70;;
25439;SDS011;13365;52.208;5.488;2023-10-19T10:46:19;7.18;;;2.00;;
25439;SDS011;13365;52.208;5.488;2023-10-19T10:48:52;6.50;;;1.70;;
25439;SDS011;13365;52.208;5.488;2023-10-19T10:51:18;9.68;;;1.52;;
25439;SDS011;13365;52.208;5.488;2023-10-19T10:53:47;11.95;;;2.28;;
25439;SDS011;13365;52.208;5.488;2023-10-19T10:56:17;4.80;;;1.87;;
25439;SDS011;13365;52.208;5.488;2023-10-19T10:58:47;11.68;;;1.50;;
25439;SDS011;13365;52.208;5.488;2023-10-19T11:01:12;5.95;;;1.80;;
25439;SDS011;13365;52.208;5.488;2023-10-19T11:03:39;3.20;;;1.27;;
25439;SDS011;13365;52.208;5.488;2023-10-19T11:06:08;8.20;;;1.75;;
25439;SDS011;13365;52.208;5.488;2023-10-19T11:08:35;5.30;;;1.45;;
25439;SDS011;13365;52.208;5.488;2023-10-19T11:11:04;5.15;;;1.30;;
25439;SDS011;13365;52.208;5.488;2023-10-19T11:13:32;5.60;;;1.20;;
25439;SDS011;13365;52.208;5.488;2023-10-19T11:16:01;7.55;;;1.92;;
25439;SDS011;13365;52.208;5.488;2023-10-19T11:18:38;6.38;;;1.70;;
25439;SDS011;13365;52.208;5.488;2023-10-19T11:21:06;5.40;;;1.50;;
25439;SDS011;13365;52.208;5.488;2023-10-19T11:23:35;8.90;;;2.78;;
25439;SDS011;13365;52.208;5.488;2023-10-19T11:26:01;4.72;;;1.77;;
25439;SDS011;13365;52.208;5.488;2023-10-19T11:28:27;4.43;;;1.67;;
25439;SDS011;13365;52.208;5.488;2023-10-19T11:30:54;6.13;;;2.40;;
25439;SDS011;13365;52.208;5.488;2023-10-19T11:33:34;8.15;;;2.22;;
25439;SDS011;13365;52.208;5.488;2023-10-19T11:36:01;6.43;;;2.30;;
25439;SDS011;13365;52.208;5.488;2023-10-19T11:38:27;4.30;;;1.60;;
25439;SDS011;13365;52.208;5.488;2023-10-19T11:40:52;4.55;;;1.48;;
25439;SDS011;13365;52.208;5.488;2023-10-19T11:43:18;7.57;;;1.50;;
25439;SDS011;13365;52.208;5.488;2023-10-19T11:45:43;6.72;;;1.75;;
25439;SDS011;13365;52.208;5.488;2023-10-19T11:48:10;6.93;;;2.13;;
25439;SDS011;13365;52.208;5.488;2023-10-19T11:50:36;8.70;;;1.85;;
25439;SDS011;13365;52.208;5.488;2023-10-19T11:53:02;4.68;;;1.60;;
25439;SDS011;13365;52.208;5.488;2023-10-19T11:55:28;12.85;;;1.73;;
25439;SDS011;13365;52.208;5.488;2023-10-19T11:57:54;8.80;;;2.20;;
25439;SDS011;13365;52.208;5.488;2023-10-19T12:00:19;6.18;;;1.83;;
25439;SDS011;13365;52.208;5.488;2023-10-19T12:02:47;3.65;;;1.40;;
25439;SDS011;13365;52.208;5.488;2023-10-19T12:05:14;7.97;;;2.17;;
25439;SDS011;13365;52.208;5.488;2023-10-19T12:07:39;8.05;;;1.67;;
25439;SDS011;13365;52.208;5.488;2023-10-19T12:10:06;10.48;;;1.80;;
25439;SDS011;13365;52.208;5.488;2023-10-19T12:12:33;5.78;;;1.42;;
25439;SDS011;13365;52.208;5.488;2023-10-19T12:14:59;9.27;;;1.80;;
25439;SDS011;13365;52.208;5.488;2023-10-19T12:17:25;9.30;;;2.00;;
25439;SDS011;13365;52.208;5.488;2023-10-19T12:19:52;2.75;;;1.48;;
25439;SDS011;13365;52.208;5.488;2023-10-19T12:22:19;6.70;;;1.90;;
25439;SDS011;13365;52.208;5.488;2023-10-19T12:24:46;8.00;;;1.42;;
25439;SDS011;13365;52.208;5.488;2023-10-19T12:27:12;5.95;;;1.55;;
25439;SDS011;13365;52.208;5.488;2023-10-19T12:29:38;7.28;;;1.48;;
25439;SDS011;13365;52.208;5.488;2023-10-19T12:32:04;6.60;;;1.83;;
25439;SDS011;13365;52.208;5.488;2023-10-19T12:34:30;6.20;;;2.05;;
25439;SDS011;13365;52.208;5.488;2023-10-19T12:36:56;6.75;;;1.70;;
25439;SDS011;13365;52.208;5.488;2023-10-19T12:39:23;5.10;;;1.80;;
25439;SDS011;13365;52.208;5.488;2023-10-19T12:42:08;7.78;;;1.40;;
25439;SDS011;13365;52.208;5.488;2023-10-19T12:44:34;9.05;;;1.48;;
25439;SDS011;13365;52.208;5.488;2023-10-19T12:47:06;8.77;;;1.58;;
25439;SDS011;13365;52.208;5.488;2023-10-19T12:49:38;1.15;;;0.63;;
25439;SDS011;13365;52.208;5.488;2023-10-19T12:52:04;5.65;;;1.60;;
25439;SDS011;13365;52.208;5.488;2023-10-19T12:54:32;8.85;;;1.33;;
25439;SDS011;13365;52.208;5.488;2023-10-19T12:56:59;6.03;;;2.22;;
25439;SDS011;13365;52.208;5.488;2023-10-19T12:59:25;8.73;;;1.35;;
25439;SDS011;13365;52.208;5.488;2023-10-19T13:01:50;9.73;;;1.77;;
25439;SDS011;13365;52.208;5.488;2023-10-19T13:04:20;6.10;;;1.70;;
25439;SDS011;13365;52.208;5.488;2023-10-19T13:06:49;9.35;;;2.20;;
25439;SDS011;13365;52.208;5.488;2023-10-19T13:09:15;8.45;;;1.30;;
25439;SDS011;13365;52.208;5.488;2023-10-19T13:14:18;4.07;;;1.80;;
25439;SDS011;13365;52.208;5.488;2023-10-19T13:16:44;6.15;;;1.40;;
25439;SDS011;13365;52.208;5.488;2023-10-19T13:19:10;9.40;;;2.05;;
25439;SDS011;13365;52.208;5.488;2023-10-19T13:21:39;5.40;;;1.63;;
25439;SDS011;13365;52.208;5.488;2023-10-19T13:24:07;10.73;;;2.00;;
25439;SDS011;13365;52.208;5.488;2023-10-19T13:26:33;7.50;;;1.80;;
25439;SDS011;13365;52.208;5.488;2023-10-19T13:28:59;6.43;;;2.05;;
25439;SDS011;13365;52.208;5.488;2023-10-19T13:31:25;8.90;;;1.95;;
25439;SDS011;13365;52.208;5.488;2023-10-19T13:33:51;6.88;;;2.00;;
25439;SDS011;13365;52.208;5.488;2023-10-19T13:36:17;7.85;;;1.80;;
25439;SDS011;13365;52.208;5.488;2023-10-19T13:38:44;5.13;;;2.13;;
25439;SDS011;13365;52.208;5.488;2023-10-19T13:41:10;7.93;;;1.80;;
25439;SDS011;13365;52.208;5.488;2023-10-19T13:43:36;6.55;;;1.83;;
25439;SDS011;13365;52.208;5.488;2023-10-19T13:46:02;7.78;;;1.80;;
25439;SDS011;13365;52.208;5.488;2023-10-19T13:48:29;5.20;;;1.90;;
25439;SDS011;13365;52.208;5.488;2023-10-19T13:50:57;5.40;;;1.92;;
25439;SDS011;13365;52.208;5.488;2023-10-19T13:53:25;8.45;;;2.00;;
25439;SDS011;13365;52.208;5.488;2023-10-19T13:55:51;6.43;;;1.92;;
25439;SDS011;13365;52.208;5.488;2023-10-19T13:58:17;3.95;;;1.67;;
25439;SDS011;13365;52.208;5.488;2023-10-19T14:00:43;4.70;;;1.75;;
25439;SDS011;13365;52.208;5.488;2023-10-19T14:03:10;3.20;;;1.70;;
25439;SDS011;13365;52.208;5.488;2023-10-19T14:05:39;10.60;;;1.98;;
25439;SDS011;13365;52.208;5.488;2023-10-19T14:08:12;8.55;;;2.10;;
25439;SDS011;13365;52.208;5.488;2023-10-19T14:10:38;4.25;;;1.63;;
25439;SDS011;13365;52.208;5.488;2023-10-19T14:13:06;4.57;;;1.45;;
25439;SDS011;13365;52.208;5.488;2023-10-19T14:15:32;6.93;;;2.30;;
25439;SDS011;13365;52.208;5.488;2023-10-19T14:18:00;4.55;;;1.65;;
25439;SDS011;13365;52.208;5.488;2023-10-19T14:20:28;5.72;;;1.40;;
25439;SDS011;13365;52.208;5.488;2023-10-19T14:22:54;3.05;;;1.55;;
25439;SDS011;13365;52.208;5.488;2023-10-19T14:25:20;4.97;;;1.55;;
25439;SDS011;13365;52.208;5.488;2023-10-19T14:27:48;5.95;;;1.27;;
25439;SDS011;13365;52.208;5.488;2023-10-19T14:30:16;7.22;;;1.73;;
25439;SDS011;13365;52.208;5.488;2023-10-19T14:32:44;6.00;;;1.70;;
25439;SDS011;13365;52.208;5.488;2023-10-19T14:35:10;5.47;;;1.40;;
25439;SDS011;13365;52.208;5.488;2023-10-19T14:37:46;6.78;;;1.67;;
25439;SDS011;13365;52.208;5.488;2023-10-19T14:40:19;6.93;;;1.77;;
25439;SDS011;13365;52.208;5.488;2023-10-19T14:42:46;4.25;;;2.10;;
25439;SDS011;13365;52.208;5.488;2023-10-19T14:45:13;4.30;;;1.60;;
25439;SDS011;13365;52.208;5.488;2023-10-19T14:47:41;7.88;;;1.48;;
25439;SDS011;13365;52.208;5.488;2023-10-19T14:50:09;5.63;;;1.45;;
25439;SDS011;13365;52.208;5.488;2023-10-19T14:52:37;8.18;;;1.35;;
25439;SDS011;13365;52.208;5.488;2023-10-19T14:55:02;5.90;;;1.80;;
25439;SDS011;13365;52.208;5.488;2023-10-19T14:57:31;4.07;;;1.40;;
25439;SDS011;13365;52.208;5.488;2023-10-19T14:59:59;4.13;;;1.40;;
25439;SDS011;13365;52.208;5.488;2023-10-19T15:02:34;5.60;;;2.13;;
25439;SDS011;13365;52.208;5.488;2023-10-19T15:05:00;5.30;;;1.67;;
25439;SDS011;13365;52.208;5.488;2023-10-19T15:07:29;3.97;;;1.40;;
25439;SDS011;13365;52.208;5.488;2023-10-19T15:09:54;4.13;;;1.35;;
25439;SDS011;13365;52.208;5.488;2023-10-19T15:12:20;4.93;;;1.38;;
25439;SDS011;13365;52.208;5.488;2023-10-19T15:14:45;7.22;;;1.38;;
25439;SDS011;13365;52.208;5.488;2023-10-19T15:17:11;6.90;;;1.77;;
25439;SDS011;13365;52.208;5.488;2023-10-19T15:19:36;4.97;;;1.67;;
25439;SDS011;13365;52.208;5.488;2023-10-19T15:22:03;4.63;;;1.67;;
25439;SDS011;13365;52.208;5.488;2023-10-19T15:24:28;9.45;;;2.05;;
25439;SDS011;13365;52.208;5.488;2023-10-19T15:26:54;10.35;;;2.30;;
25439;SDS011;13365;52.208;5.488;2023-10-19T15:29:19;8.27;;;1.80;;
25439;SDS011;13365;52.208;5.488;2023-10-19T15:31:45;3.47;;;1.27;;
25439;SDS011;13365;52.208;5.488;2023-10-19T15:34:10;9.07;;;1.70;;
25439;SDS011;13365;52.208;5.488;2023-10-19T15:36:38;7.32;;;2.47;;
25439;SDS011;13365;52.208;5.488;2023-10-19T15:39:03;8.05;;;2.83;;
25439;SDS011;13365;52.208;5.488;2023-10-19T15:41:29;8.30;;;2.35;;
25439;SDS011;13365;52.208;5.488;2023-10-19T15:43:55;8.40;;;2.65;;
25439;SDS011;13365;52.208;5.488;2023-10-19T15:46:20;9.48;;;2.65;;
25439;SDS011;13365;52.208;5.488;2023-10-19T15:48:49;5.78;;;2.20;;
25439;SDS011;13365;52.208;5.488;2023-10-19T15:51:15;4.45;;;2.30;;
25439;SDS011;13365;52.208;5.488;2023-10-19T15:53:40;7.18;;;2.72;;
25439;SDS011;13365;52.208;5.488;2023-10-19T15:56:06;5.85;;;3.15;;
25439;SDS011;13365;52.208;5.488;2023-10-19T15:58:32;8.30;;;2.83;;
25439;SDS011;13365;52.208;5.488;2023-10-19T16:00:57;8.35;;;2.30;;
25439;SDS011;13365;52.208;5.488;2023-10-19T16:03:23;5.90;;;2.50;;
25439;SDS011;13365;52.208;5.488;2023-10-19T16:05:48;3.58;;;1.92;;
25439;SDS011;13365;52.208;5.488;2023-10-19T16:08:14;4.40;;;2.40;;
25439;SDS011;13365;52.208;5.488;2023-10-19T16:10:39;5.45;;;2.22;;
25439;SDS011;13365;52.208;5.488;2023-10-19T16:13:05;6.00;;;2.35;;
25439;SDS011;13365;52.208;5.488;2023-10-19T16:15:32;7.43;;;2.25;;
25439;SDS011;13365;52.208;5.488;2023-10-19T16:17:58;6.22;;;2.65;;
25439;SDS011;13365;52.208;5.488;2023-10-19T16:20:24;5.75;;;2.33;;
25439;SDS011;13365;52.208;5.488;2023-10-19T16:22:50;7.05;;;2.15;;
25439;SDS011;13365;52.208;5.488;2023-10-19T16:25:16;4.93;;;1.70;;
25439;SDS011;13365;52.208;5.488;2023-10-19T16:27:42;6.15;;;2.33;;
25439;SDS011;13365;52.208;5.488;2023-10-19T16:30:08;6.65;;;2.35;;
25439;SDS011;13365;52.208;5.488;2023-10-19T16:32:37;4.72;;;2.45;;
25439;SDS011;13365;52.208;5.488;2023-10-19T16:35:05;8.43;;;2.35;;
25439;SDS011;13365;52.208;5.488;2023-10-19T16:37:31;4.53;;;1.75;;
25439;SDS011;13365;52.208;5.488;2023-10-19T16:39:57;8.88;;;3.08;;
25439;SDS011;13365;52.208;5.488;2023-10-19T16:42:23;4.00;;;2.40;;
25439;SDS011;13365;52.208;5.488;2023-10-19T16:44:49;4.15;;;2.00;;
25439;SDS011;13365;52.208;5.488;2023-10-19T16:47:15;5.78;;;2.13;;
25439;SDS011;13365;52.208;5.488;2023-10-19T16:49:41;4.38;;;1.83;;
25439;SDS011;13365;52.208;5.488;2023-10-19T16:52:06;9.65;;;2.53;;
25439;SDS011;13365;52.208;5.488;2023-10-19T16:54:32;5.15;;;2.30;;
25439;SDS011;13365;52.208;5.488;2023-10-19T16:56:58;4.65;;;1.85;;
25439;SDS011;13365;52.208;5.488;2023-10-19T16:59:24;5.65;;;2.63;;
25439;SDS011;13365;52.208;5.488;2023-10-19T17:01:51;8.82;;;2.35;;
25439;SDS011;13365;52.208;5.488;2023-10-19T17:04:16;6.47;;;2.95;;
25439;SDS011;13365;52.208;5.488;2023-10-19T17:06:42;5.15;;;2.45;;
25439;SDS011;13365;52.208;5.488;2023-10-19T17:09:20;10.23;;;2.70;;
25439;SDS011;13365;52.208;5.488;2023-10-19T17:11:50;6.53;;;2.10;;
25439;SDS011;13365;52.208;5.488;2023-10-19T17:14:17;5.07;;;2.45;;
25439;SDS011;13365;52.208;5.488;2023-10-19T17:16:44;6.18;;;2.50;;
25439;SDS011;13365;52.208;5.488;2023-10-19T17:19:10;9.95;;;2.92;;
25439;SDS011;13365;52.208;5.488;2023-10-19T17:21:36;10.20;;;2.80;;
25439;SDS011;13365;52.208;5.488;2023-10-19T17:24:02;6.05;;;2.55;;
25439;SDS011;13365;52.208;5.488;2023-10-19T17:26:29;7.13;;;2.30;;
25439;SDS011;13365;52.208;5.488;2023-10-19T17:28:55;10.07;;;2.88;;
25439;SDS011;13365;52.208;5.488;2023-10-19T17:31:21;6.70;;;3.20;;
25439;SDS011;13365;52.208;5.488;2023-10-19T17:33:47;8.57;;;2.95;;
25439;SDS011;13365;52.208;5.488;2023-10-19T17:36:13;9.25;;;3.05;;
25439;SDS011;13365;52.208;5.488;2023-10-19T17:38:39;8.25;;;3.05;;
25439;SDS011;13365;52.208;5.488;2023-10-19T17:41:05;9.82;;;3.33;;
25439;SDS011;13365;52.208;5.488;2023-10-19T17:43:30;8.50;;;2.75;;
25439;SDS011;13365;52.208;5.488;2023-10-19T17:45:56;8.10;;;2.92;;
25439;SDS011;13365;52.208;5.488;2023-10-19T17:48:21;8.15;;;2.92;;
25439;SDS011;13365;52.208;5.488;2023-10-19T17:50:50;11.57;;;3.45;;
25439;SDS011;13365;52.208;5.488;2023-10-19T17:53:16;8.18;;;2.50;;
25439;SDS011;13365;52.208;5.488;2023-10-19T17:55:42;9.25;;;2.80;;
25439;SDS011;13365;52.208;5.488;2023-10-19T17:58:07;6.28;;;3.03;;
25439;SDS011;13365;52.208;5.488;2023-10-19T18:00:36;7.72;;;3.17;;
25439;SDS011;13365;52.208;5.488;2023-10-19T18:03:02;9.27;;;3.00;;
25439;SDS011;13365;52.208;5.488;2023-10-19T18:05:31;12.50;;;3.22;;
25439;SDS011;13365;52.208;5.488;2023-10-19T18:07:57;7.18;;;3.45;;
25439;SDS011;13365;52.208;5.488;2023-10-19T18:10:23;8.15;;;3.22;;
25439;SDS011;13365;52.208;5.488;2023-10-19T18:12:53;9.23;;;2.80;;
25439;SDS011;13365;52.208;5.488;2023-10-19T18:15:20;6.40;;;3.13;;
25439;SDS011;13365;52.208;5.488;2023-10-19T18:17:46;6.50;;;3.33;;
25439;SDS011;13365;52.208;5.488;2023-10-19T18:20:12;7.28;;;3.28;;
25439;SDS011;13365;52.208;5.488;2023-10-19T18:22:41;8.85;;;3.17;;
25439;SDS011;13365;52.208;5.488;2023-10-19T18:25:07;10.32;;;3.55;;
25439;SDS011;13365;52.208;5.488;2023-10-19T18:27:32;8.63;;;2.97;;
25439;SDS011;13365;52.208;5.488;2023-10-19T18:29:58;4.60;;;2.70;;
25439;SDS011;13365;52.208;5.488;2023-10-19T18:32:24;7.75;;;3.28;;
25439;SDS011;13365;52.208;5.488;2023-10-19T18:34:50;9.02;;;3.13;;
25439;SDS011;13365;52.208;5.488;2023-10-19T18:37:15;3.88;;;2.40;;
25439;SDS011;13365;52.208;5.488;2023-10-19T18:39:43;8.02;;;3.33;;
25439;SDS011;13365;52.208;5.488;2023-10-19T18:42:09;4.32;;;3.00;;
25439;SDS011;13365;52.208;5.488;2023-10-19T18:44:37;6.60;;;3.28;;
25439;SDS011;13365;52.208;5.488;2023-10-19T18:47:03;9.43;;;3.03;;
25439;SDS011;13365;52.208;5.488;2023-10-19T18:49:29;6.38;;;3.10;;
25439;SDS011;13365;52.208;5.488;2023-10-19T18:51:55;6.43;;;2.90;;
25439;SDS011;13365;52.208;5.488;2023-10-19T18:54:20;7.28;;;3.20;;
25439;SDS011;13365;52.208;5.488;2023-10-19T18:56:46;13.48;;;3.38;;
25439;SDS011;13365;52.208;5.488;2023-10-19T18:59:11;7.88;;;3.30;;
25439;SDS011;13365;52.208;5.488;2023-10-19T19:01:37;4.03;;;2.70;;
25439;SDS011;13365;52.208;5.488;2023-10-19T19:04:03;9.10;;;3.42;;
25439;SDS011;13365;52.208;5.488;2023-10-19T19:06:31;6.85;;;3.00;;
25439;SDS011;13365;52.208;5.488;2023-10-19T19:08:57;4.70;;;2.95;;
25439;SDS011;13365;52.208;5.488;2023-10-19T19:11:22;7.50;;;3.75;;
25439;SDS011;13365;52.208;5.488;2023-10-19T19:13:48;8.82;;;3.65;;
25439;SDS011;13365;52.208;5.488;2023-10-19T19:16:14;9.18;;;4.22;;
25439;SDS011;13365;52.208;5.488;2023-10-19T19:18:40;9.23;;;4.07;;
25439;SDS011;13365;52.208;5.488;2023-10-19T19:21:06;7.43;;;3.72;;
25439;SDS011;13365;52.208;5.488;2023-10-19T19:23:36;9.00;;;4.28;;
25439;SDS011;13365;52.208;5.488;2023-10-19T19:26:02;5.07;;;3.30;;
25439;SDS011;13365;52.208;5.488;2023-10-19T19:28:28;7.95;;;3.47;;
25439;SDS011;13365;52.208;5.488;2023-10-19T19:30:57;9.43;;;3.42;;
25439;SDS011;13365;52.208;5.488;2023-10-19T19:33:23;10.93;;;3.80;;
25439;SDS011;13365;52.208;5.488;2023-10-19T19:35:49;5.15;;;3.22;;
25439;SDS011;13365;52.208;5.488;2023-10-19T19:38:14;6.53;;;3.30;;
25439;SDS011;13365;52.208;5.488;2023-10-19T19:40:40;8.55;;;3.40;;
25439;SDS011;13365;52.208;5.488;2023-10-19T19:43:05;6.32;;;3.67;;
25439;SDS011;13365;52.208;5.488;2023-10-19T19:45:33;9.85;;;3.38;;
25439;SDS011;13365;52.208;5.488;2023-10-19T19:48:01;7.28;;;3.92;;
25439;SDS011;13365;52.208;5.488;2023-10-19T19:50:28;6.22;;;3.03;;
25439;SDS011;13365;52.208;5.488;2023-10-19T19:52:54;8.95;;;4.10;;
25439;SDS011;13365;52.208;5.488;2023-10-19T19:55:19;7.88;;;3.67;;
25439;SDS011;13365;52.208;5.488;2023-10-19T19:57:45;8.40;;;3.90;;
25439;SDS011;13365;52.208;5.488;2023-10-19T20:00:12;8.85;;;3.72;;
25439;SDS011;13365;52.208;5.488;2023-10-19T20:02:45;9.63;;;4.43;;
25439;SDS011;13365;52.208;5.488;2023-10-19T20:05:12;9.93;;;3.85;;
25439;SDS011;13365;52.208;5.488;2023-10-19T20:07:38;7.55;;;4.63;;
25439;SDS011;13365;52.208;5.488;2023-10-19T20:10:04;9.55;;;4.68;;
25439;SDS011;13365;52.208;5.488;2023-10-19T20:12:33;9.85;;;4.10;;
25439;SDS011;13365;52.208;5.488;2023-10-19T20:15:06;9.57;;;4.40;;
25439;SDS011;13365;52.208;5.488;2023-10-19T20:17:36;9.55;;;5.18;;
25439;SDS011;13365;52.208;5.488;2023-10-19T20:20:05;9.38;;;4.75;;
25439;SDS011;13365;52.208;5.488;2023-10-19T20:22:36;8.10;;;4.28;;
25439;SDS011;13365;52.208;5.488;2023-10-19T20:25:02;8.48;;;4.78;;
25439;SDS011;13365;52.208;5.488;2023-10-19T20:27:27;10.65;;;4.75;;
25439;SDS011;13365;52.208;5.488;2023-10-19T20:29:53;11.65;;;5.22;;
25439;SDS011;13365;52.208;5.488;2023-10-19T20:32:19;8.73;;;5.35;;
25439;SDS011;13365;52.208;5.488;2023-10-19T20:34:45;8.57;;;5.28;;
25439;SDS011;13365;52.208;5.488;2023-10-19T20:37:10;11.57;;;5.28;;
25439;SDS011;13365;52.208;5.488;2023-10-19T20:39:36;7.05;;;4.50;;
25439;SDS011;13365;52.208;5.488;2023-10-19T20:42:04;8.95;;;4.53;;
25439;SDS011;13365;52.208;5.488;2023-10-19T20:44:32;7.15;;;4.47;;
25439;SDS011;13365;52.208;5.488;2023-10-19T20:47:07;14.15;;;4.43;;
25439;SDS011;13365;52.208;5.488;2023-10-19T20:49:36;10.35;;;4.30;;
25439;SDS011;13365;52.208;5.488;2023-10-19T20:52:03;6.93;;;4.60;;
25439;SDS011;13365;52.208;5.488;2023-10-19T20:54:29;13.30;;;5.50;;
25439;SDS011;13365;52.208;5.488;2023-10-19T20:56:55;13.68;;;5.18;;
25439;SDS011;13365;52.208;5.488;2023-10-19T20:59:21;9.68;;;5.00;;
25439;SDS011;13365;52.208;5.488;2023-10-19T21:01:47;13.02;;;4.80;;
25439;SDS011;13365;52.208;5.488;2023-10-19T21:04:13;9.82;;;5.32;;
25439;SDS011;13365;52.208;5.488;2023-10-19T21:06:38;11.10;;;5.05;;
25439;SDS011;13365;52.208;5.488;2023-10-19T21:09:04;9.55;;;5.60;;
25439;SDS011;13365;52.208;5.488;2023-10-19T21:11:30;12.05;;;5.13;;
25439;SDS011;13365;52.208;5.488;2023-10-19T21:13:57;11.05;;;5.65;;
25439;SDS011;13365;52.208;5.488;2023-10-19T21:16:23;10.75;;;5.72;;
25439;SDS011;13365;52.208;5.488;2023-10-19T21:18:50;11.30;;;5.88;;
25439;SDS011;13365;52.208;5.488;2023-10-19T21:21:16;9.35;;;6.13;;
25439;SDS011;13365;52.208;5.488;2023-10-19T21:23:41;9.82;;;5.78;;
25439;SDS011;13365;52.208;5.488;2023-10-19T21:26:07;10.75;;;6.43;;
25439;SDS011;13365;52.208;5.488;2023-10-19T21:28:33;10.90;;;6.65;;
25439;SDS011;13365;52.208;5.488;2023-10-19T21:30:59;12.57;;;6.05;;
25439;SDS011;13365;52.208;5.488;2023-10-19T21:33:26;9.63;;;6.47;;
25439;SDS011;13365;52.208;5.488;2023-10-19T21:35:51;12.02;;;6.57;;
25439;SDS011;13365;52.208;5.488;2023-10-19T21:38:17;17.65;;;6.22;;
25439;SDS011;13365;52.208;5.488;2023-10-19T21:40:43;9.77;;;6.07;;
25439;SDS011;13365;52.208;5.488;2023-10-19T21:43:11;9.60;;;5.88;;
25439;SDS011;13365;52.208;5.488;2023-10-19T21:45:37;12.85;;;7.15;;
25439;SDS011;13365;52.208;5.488;2023-10-19T21:48:04;11.63;;;6.65;;
25439;SDS011;13365;52.208;5.488;2023-10-19T21:50:30;12.55;;;7.18;;
25439;SDS011;13365;52.208;5.488;2023-10-19T21:52:56;14.00;;;6.63;;
25439;SDS011;13365;52.208;5.488;2023-10-19T21:55:23;12.73;;;6.57;;
25439;SDS011;13365;52.208;5.488;2023-10-19T21:57:48;14.15;;;6.68;;
25439;SDS011;13365;52.208;5.488;2023-10-19T22:00:14;13.82;;;6.97;;
25439;SDS011;13365;52.208;5.488;2023-10-19T22:02:50;15.98;;;7.50;;
25439;SDS011;13365;52.208;5.488;2023-10-19T22:05:16;12.60;;;6.50;;
25439;SDS011;13365;52.208;5.488;2023-10-19T22:07:42;14.85;;;7.55;;
25439;SDS011;13365;52.208;5.488;2023-10-19T22:10:08;13.07;;;7.45;;
25439;SDS011;13365;52.208;5.488;2023-10-19T22:12:34;14.00;;;7.82;;
25439;SDS011;13365;52.208;5.488;2023-10-19T22:15:00;15.63;;;8.48;;
25439;SDS011;13365;52.208;5.488;2023-10-19T22:17:26;13.15;;;8.55;;
25439;SDS011;13365;52.208;5.488;2023-10-19T22:19:51;16.33;;;8.73;;
25439;SDS011;13365;52.208;5.488;2023-10-19T22:22:17;17.40;;;8.55;;
25439;SDS011;13365;52.208;5.488;2023-10-19T22:24:44;17.30;;;9.05;;
25439;SDS011;13365;52.208;5.488;2023-10-19T22:27:10;19.23;;;10.18;;
25439;SDS011;13365;52.208;5.488;2023-10-19T22:29:35;16.75;;;9.43;;
25439;SDS011;13365;52.208;5.488;2023-10-19T22:32:01;18.83;;;8.63;;
25439;SDS011;13365;52.208;5.488;2023-10-19T22:34:26;15.70;;;9.00;;
25439;SDS011;13365;52.208;5.488;2023-10-19T22:36:52;15.15;;;9.48;;
25439;SDS011;13365;52.208;5.488;2023-10-19T22:39:18;17.83;;;10.00;;